Nearby METAR Reports

 

EFHK - Helsinki/Vantaa, Finland
Distance from station: IKO 45km
Päivitetty: 17/10/2017 10:20
Selkeätä
Selkeätä
 Tuulen suunta LLO
Tuuli: LLO 7 km/h
Lämpötila: 6°C
Wind Chill: 4°C
Kastepiste: 4°C
Kosteus: 87%
Ilmanpaine: 1012 hPa
Yhteenveto: Selkeätä
Visibility: greater than 10 km
2017/10/17 07:20 EFHK 170720Z 24004KT CAVOK 06/04 Q1012 NOSIG
EFHF - Helsinki/Malmi, Finland
Distance from station: IKO 47km
Päivitetty: 06/03/2017 17:50
NOT Current
Selkeätä
Selkeätä
 Tuulen suunta KO
Tuuli: KO 11 km/h
Lämpötila: -2°C
Wind Chill: -6°C
Kastepiste: -11°C
Kosteus: 51%
Ilmanpaine: 1021 hPa
Yhteenveto: Selkeätä
Visibility: greater than 10 km
2017/03/06 15:50 EFHF 061550Z 04006KT 330V100 CAVOK M02/M11 Q1021
 
EETN - Tallinn, Estonia
Distance from station: EKA 89km
Päivitetty: 17/10/2017 10:20
Few Clouds
Few Clouds
 Tuulen suunta LLO
Tuuli: LLO 15 km/h
Lämpötila: 9°C
Wind Chill: 7°C
Kastepiste: 5°C
Kosteus: 76%
Ilmanpaine: 1014 hPa
Clouds: Few Clouds
Visibility: 10 km
Cloud details: Few Clouds 914 m
2017/10/17 07:20 EETN 170720Z 25008KT 9999 FEW030 09/05 Q1014 NOSIG
EFTU - Turku/Abo, Finland
Distance from station: LLU 115km
Päivitetty: 17/10/2017 10:20
Vaihetelvaa
Vaihetelvaa
 Tuulen suunta ELO
Tuuli: ELO 7 km/h
Lämpötila: 8°C
Wind Chill: 7°C
Kastepiste: 4°C
Kosteus: 76%
Ilmanpaine: 1012 hPa
Clouds: Vaihetelvaa
Visibility: 10 km
Cloud details: Vaihetelvaa 2469 m
2017/10/17 07:20 EFTU 170720Z AUTO 21004KT 180V250 9999 OVC081/// 08/04 Q1012
 
EFTP - Tampere/Pirkkala, Finland
Distance from station: PLU 145km
Päivitetty: 17/10/2017 10:20
Selkeätä
Selkeätä
 Tuulen suunta LO
Tuuli: LO 17 km/h
Lämpötila: 6°C
Wind Chill: 3°C
Kastepiste: 4°C
Kosteus: 87%
Ilmanpaine: 1011 hPa
Yhteenveto: Selkeätä
Visibility: greater than 10 km
2017/10/17 07:20 EFTP 170720Z 23009KT CAVOK 06/04 Q1011
EEKA - Kardla, Estonia
Distance from station: ELO 151km
Päivitetty: 17/10/2017 09:50
Heikkoa sadetta, Puolipilvistä
Heikkoa sadetta, Puolipilvistä
 Tuulen suunta ELO
Tuuli: ELO 7 km/h
Lämpötila: 9°C
Wind Chill: 8°C
Kastepiste: 8°C
Kosteus: 94%
Ilmanpaine: 1016 hPa
Yhteenveto: Heikkoa sadetta
Clouds: Puolipilvistä
Visibility: 10 km
Cloud details: Puolipilvistä 1219 m
2017/10/17 06:50 EEKA 170650Z 21004KT 9999 -RA SCT040 09/08 Q1016
 
EFUT - Utti (fin-Afb), Finland
Distance from station: IKO 169km
Päivitetty: 17/10/2017 10:20
Selkeätä
Selkeätä
 Tuulen suunta L
Tuuli: L 17 km/h
Lämpötila: 5°C
Wind Chill: 2°C
Kastepiste: 3°C
Kosteus: 87%
Ilmanpaine: 1010 hPa
Yhteenveto: Selkeätä
Visibility: greater than 10 km
2017/10/17 07:20 EFUT 170720Z 26009KT 230V310 CAVOK 05/03 Q1010
EFHA - Halli (fin-Afb), Finland
Distance from station: P 192km
Päivitetty: 17/10/2017 10:20
Selkeätä
Selkeätä
 Tuulen suunta LLO
Tuuli: LLO 24 km/h
Lämpötila: 5°C
Wind Chill: 1°C
Kastepiste: 4°C
Kosteus: 93%
Ilmanpaine: 1009 hPa
Yhteenveto: Selkeätä
Visibility: greater than 10 km
2017/10/17 07:20 EFHA 170720Z AUTO 25013KT CAVOK 05/04 Q1009
 
EEPU - Parnu, Estonia
Distance from station: E 193km
Päivitetty: 17/10/2017 09:50
Heikkoa sadetta, Vaihetelvaa
Heikkoa sadetta, Vaihetelvaa
 Tuulen suunta varies
Tuuli: varies 4 km/h
Lämpötila: 9°C
Kastepiste: 9°C
Kosteus: 100%
Ilmanpaine: 1016 hPa
Yhteenveto: Heikkoa sadetta
Clouds: Vaihetelvaa
Visibility: 10 km
Cloud details: Vaihetelvaa 1372 m
2017/10/17 06:50 EEPU 170650Z VRB02KT 9999 -RA OVC045 09/09 Q1016
EFPO - Pori (mil/Civ), Finland
Distance from station: LU 197km
Päivitetty: 17/10/2017 10:20
Puolipilvistä
Puolipilvistä
 Tuulen suunta LLO
Tuuli: LLO 7 km/h
Lämpötila: 9°C
Wind Chill: 8°C
Kastepiste: 6°C
Kosteus: 82%
Ilmanpaine: 1011 hPa
Clouds: Puolipilvistä
Visibility: 10 km
Cloud details: Puolipilvistä 2560 m
2017/10/17 07:20 EFPO 170720Z AUTO 25004KT 200V320 9999 SCT084/// 09/06 Q1011